Gosnells City, Western Australia

11:24 AM AWST on February 09, 2016 (GMT +0800)
Gosnells | | Change Station
CLOSE
Current Station
Personal Weather Station
Location: Gosnells, WESTERN AUSTRALIA
Elevation: 39 ft
Nearby Weather Stations

Elev 39 ft 32.07 °S, 115.99 °E | Updated 9 minutes ago

Clear
Clear
107.4 °F
Feels Like 103 °F
N
3.7
Wind Variable Wind from NNW
Gusts 9.8 mph

Today
High -- | Low -- °F
--% Chance of Precip.
Yesterday
High -- | Low -- °F
Precip. -- in
Pressure 29.95 in
Visibility -9999.0 miles
Clouds
Heat Index 103 °F
Dew Point 44 °F
Humidity 12%
Rainfall 0.00 in
Snow Depth Not available.
5:47 AM 7:12 PM
New Moon, 0% visible
METAR YPPH 090300Z 01009KT CAVOK 40/02 Q1014 NOSIG
Pressure 29.95 in
Visibility -9999.0 miles
Clouds
Heat Index 103 °F
Dew Point 44 °F
Humidity 12%
Rainfall 0.00 in
Snow Depth Not available.
5:47 AM 7:12 PM
New Moon, 0% visible
METAR YPPH 090300Z 01009KT CAVOK 40/02 Q1014 NOSIG

10-Day Weather Forecast

Almanac

Astronomy

Feb. 09, 2016 Rise Set
Actual Time
Civil Twilight
Nautical Twilight
Astronomical Twilight
Moon
Length of Visible Light
Length of Day
Tomorrow will be .
, % of the Moon is Illuminated

Today's Extremes

Country Highs Country Lows

Community

WunderPhotos

Upload Photos

1,891,527 photos uploaded!

WunderBlog® & News

Nearby

Air Quality

  Air Quality AQ Index Pollutant
Not available.

Snow Depth

Station Depth Elevation

Earthquake Activity

City Distance Mag. Time & Date
Minimum magnitude displayed is 2.5.

Coastal Water Temperatures

Place Temperature

Stations

Nearby Weather Stations

Station Location Temp. Windchill Dew Point Humidity Wind Precip. Elev Updated Type